createdAt,value
2018-05-04T00:00:05.041Z,3.50
2018-05-04T00:01:05.054Z,3.40
2018-05-04T00:02:05.070Z,3.70
2018-05-04T00:03:05.090Z,3.70
2018-05-04T00:04:05.129Z,3.40
2018-05-04T00:05:05.122Z,3.40
2018-05-04T00:06:05.136Z,3.70
2018-05-04T00:07:05.149Z,3.40
2018-05-04T00:08:05.164Z,3.40
2018-05-04T00:09:05.179Z,3.70
2018-05-04T00:10:05.195Z,2.80
2018-05-04T00:11:05.211Z,3.50
2018-05-04T00:12:05.227Z,3.60
2018-05-04T00:13:05.449Z,3.80
2018-05-04T00:14:05.311Z,3.60
2018-05-04T00:15:05.285Z,3.20
2018-05-04T00:16:05.289Z,3.20
2018-05-04T00:17:05.306Z,3.10
2018-05-04T00:18:05.319Z,3.40
2018-05-04T00:19:05.342Z,3.20
2018-05-04T00:20:05.354Z,3.60
2018-05-04T00:21:05.366Z,3.20
2018-05-04T00:22:05.384Z,3.50
2018-05-04T00:23:05.401Z,3.40
2018-05-04T00:24:05.417Z,3.40
2018-05-04T00:25:05.429Z,3.60
2018-05-04T00:26:05.443Z,3.70
2018-05-04T00:27:05.461Z,3.30
2018-05-04T00:28:05.479Z,3.20
2018-05-04T00:29:05.490Z,3.70
2018-05-04T00:30:05.507Z,3.50
2018-05-04T00:31:05.521Z,3.70
2018-05-04T00:32:05.537Z,3.10
2018-05-04T00:33:05.556Z,3.40
2018-05-04T00:34:05.567Z,3.70
2018-05-04T00:35:05.583Z,3.20
2018-05-04T00:36:05.599Z,3.50
2018-05-04T00:37:05.615Z,3.00
2018-05-04T00:38:05.637Z,3.70
2018-05-04T00:39:05.650Z,3.40
2018-05-04T00:40:05.663Z,3.50
2018-05-04T00:41:05.676Z,3.20
2018-05-04T00:42:05.695Z,3.70
2018-05-04T00:43:05.712Z,3.70
2018-05-04T00:44:05.731Z,3.40
2018-05-04T00:45:05.820Z,3.40
2018-05-04T00:46:05.756Z,3.50
2018-05-04T00:47:05.955Z,3.70
2018-05-04T00:48:05.790Z,3.30
2018-05-04T00:49:05.800Z,3.40
2018-05-04T00:50:05.817Z,3.40
2018-05-04T00:51:05.843Z,3.60
2018-05-04T00:52:05.852Z,3.50
2018-05-04T00:53:05.864Z,3.80
2018-05-04T00:54:05.879Z,3.40
2018-05-04T00:55:05.895Z,3.80
2018-05-04T00:56:05.910Z,3.60
2018-05-04T00:57:05.927Z,3.60
2018-05-04T00:58:05.940Z,3.40
2018-05-04T00:59:05.957Z,3.70
2018-05-04T01:00:05.973Z,3.80
2018-05-04T01:01:06.000Z,3.80
2018-05-04T01:02:06.004Z,3.80
2018-05-04T01:03:06.019Z,3.60
2018-05-04T01:04:06.041Z,3.50
2018-05-04T01:05:06.048Z,3.50
2018-05-04T01:06:06.080Z,3.00
2018-05-04T01:07:06.078Z,3.80
2018-05-04T01:08:06.102Z,4.30
2018-05-04T01:09:06.115Z,3.30
2018-05-04T01:10:06.124Z,3.70
2018-05-04T01:11:06.147Z,3.60
2018-05-04T01:12:06.162Z,4.10
2018-05-04T01:13:06.174Z,3.40
2018-05-04T01:14:06.190Z,3.70
2018-05-04T01:15:06.201Z,3.60
2018-05-04T01:16:06.217Z,3.80
2018-05-04T01:17:06.235Z,3.60
2018-05-04T01:18:06.269Z,3.70
2018-05-04T01:19:06.266Z,3.70
2018-05-04T01:20:06.407Z,4.60
2018-05-04T01:21:06.346Z,3.60
2018-05-04T01:22:06.318Z,3.40
2018-05-04T01:23:06.330Z,3.60
2018-05-04T01:24:06.341Z,3.70
2018-05-04T01:25:06.355Z,3.60
2018-05-04T01:26:06.374Z,3.60
2018-05-04T01:27:06.386Z,4.10
2018-05-04T01:28:06.402Z,3.50
2018-05-04T01:29:06.419Z,3.70
2018-05-04T01:30:06.431Z,4.00
2018-05-04T01:31:06.447Z,3.50
2018-05-04T01:32:06.464Z,3.80
2018-05-04T01:33:06.473Z,3.50
2018-05-04T01:34:06.493Z,3.50
2018-05-04T01:35:06.510Z,3.90
2018-05-04T01:36:06.523Z,3.90
2018-05-04T01:37:06.539Z,3.70
2018-05-04T01:38:06.555Z,3.60
2018-05-04T01:39:06.669Z,3.60
2018-05-04T01:40:06.738Z,4.10
2018-05-04T01:41:06.712Z,4.30
2018-05-04T01:42:06.722Z,3.60
2018-05-04T01:43:06.781Z,4.00
2018-05-04T01:44:06.646Z,3.80
2018-05-04T01:45:06.673Z,3.70
2018-05-04T01:46:06.676Z,3.70
2018-05-04T01:47:06.692Z,3.70
2018-05-04T01:48:06.705Z,3.50
2018-05-04T01:49:06.797Z,4.00
2018-05-04T01:50:06.745Z,3.90
2018-05-04T01:51:06.758Z,3.40
2018-05-04T01:52:06.789Z,3.80
2018-05-04T01:53:06.806Z,3.80
2018-05-04T01:54:06.796Z,3.60
2018-05-04T01:55:06.810Z,3.60
2018-05-04T01:56:06.826Z,3.80
2018-05-04T01:57:06.848Z,3.60
2018-05-04T01:58:06.855Z,3.60
2018-05-04T01:59:06.870Z,3.50
2018-05-04T02:00:06.894Z,3.50
2018-05-04T02:01:06.902Z,3.50
2018-05-04T02:02:06.916Z,4.10
2018-05-04T02:03:06.931Z,3.70
2018-05-04T02:04:06.951Z,3.50
2018-05-04T02:05:06.967Z,3.70
2018-05-04T02:06:06.978Z,4.20
2018-05-04T02:07:06.995Z,4.40
2018-05-04T02:08:07.009Z,3.60
2018-05-04T02:09:07.025Z,3.60
2018-05-04T02:10:07.038Z,3.90
2018-05-04T02:11:07.053Z,3.70
2018-05-04T02:12:07.072Z,3.80
2018-05-04T02:13:07.087Z,3.80
2018-05-04T02:14:07.096Z,3.80
2018-05-04T02:15:07.114Z,3.70
2018-05-04T02:16:07.152Z,4.60
2018-05-04T02:17:07.153Z,4.10
2018-05-04T02:18:07.158Z,3.90
2018-05-04T02:19:07.182Z,3.90
2018-05-04T02:20:07.192Z,4.00
2018-05-04T02:21:07.208Z,3.80
2018-05-04T02:22:07.228Z,4.10
2018-05-04T02:23:07.237Z,3.70
2018-05-04T02:24:07.251Z,4.00
2018-05-04T02:25:07.290Z,3.80
2018-05-04T02:26:07.277Z,3.70
2018-05-04T02:27:07.295Z,3.90
2018-05-04T02:28:07.308Z,4.20
2018-05-04T02:29:07.322Z,4.20
2018-05-04T02:30:07.351Z,3.60
2018-05-04T02:31:07.355Z,4.10
2018-05-04T02:32:07.370Z,3.60
2018-05-04T02:33:07.384Z,3.80
2018-05-04T02:34:07.403Z,3.50
2018-05-04T02:35:07.425Z,3.70
2018-05-04T02:36:07.430Z,3.90
2018-05-04T02:37:07.443Z,3.90
2018-05-04T02:38:07.460Z,4.30
2018-05-04T02:39:07.475Z,3.90
2018-05-04T02:40:07.495Z,4.00
2018-05-04T02:41:07.506Z,3.80
2018-05-04T02:42:07.519Z,4.20
2018-05-04T02:43:07.535Z,4.30
2018-05-04T02:44:07.555Z,3.80
2018-05-04T02:45:07.565Z,4.00
2018-05-04T02:46:07.580Z,3.80
2018-05-04T02:47:07.591Z,3.80
2018-05-04T02:48:07.607Z,3.80
2018-05-04T02:49:07.646Z,4.30
2018-05-04T02:50:07.639Z,4.00
2018-05-04T02:51:07.658Z,4.20
2018-05-04T02:52:07.668Z,3.90
2018-05-04T02:53:07.684Z,4.10
2018-05-04T02:54:07.705Z,4.00
2018-05-04T02:55:07.714Z,4.10
2018-05-04T02:56:07.726Z,4.20
2018-05-04T02:57:07.754Z,4.00
2018-05-04T02:58:07.765Z,4.00
2018-05-04T02:59:07.772Z,3.90
2018-05-04T03:00:07.796Z,4.00
2018-05-04T03:01:07.803Z,4.00
2018-05-04T03:02:07.816Z,4.10
2018-05-04T03:03:07.847Z,4.20
2018-05-04T03:04:07.848Z,4.10
2018-05-04T03:05:07.862Z,4.20
2018-05-04T03:06:07.876Z,4.20
2018-05-04T03:07:07.897Z,3.90
2018-05-04T03:08:07.907Z,4.30
2018-05-04T03:09:07.929Z,4.30
2018-05-04T03:10:07.939Z,4.00
2018-05-04T03:11:07.956Z,4.40
2018-05-04T03:12:07.966Z,4.30
2018-05-04T03:13:07.994Z,3.90
2018-05-04T03:14:07.999Z,4.20
2018-05-04T03:15:08.018Z,4.10
2018-05-04T03:16:08.026Z,4.60
2018-05-04T03:17:08.040Z,4.30
2018-05-04T03:18:08.063Z,4.60
2018-05-04T03:19:08.071Z,4.70
2018-05-04T03:20:08.086Z,4.30
2018-05-04T03:21:08.099Z,4.40
2018-05-04T03:22:08.121Z,4.20
2018-05-04T03:23:08.131Z,4.20
2018-05-04T03:24:08.163Z,4.50
2018-05-04T03:25:08.157Z,4.00
2018-05-04T03:26:08.175Z,4.30
2018-05-04T03:27:08.189Z,4.00
2018-05-04T03:28:08.208Z,4.10
2018-05-04T03:29:08.227Z,4.90
2018-05-04T03:30:08.251Z,4.40
2018-05-04T03:31:08.254Z,4.00
2018-05-04T03:32:08.264Z,4.30
2018-05-04T03:33:08.317Z,4.60
2018-05-04T03:34:08.293Z,4.30
2018-05-04T03:35:08.309Z,4.30
2018-05-04T03:36:08.325Z,4.60
2018-05-04T03:37:08.337Z,4.70
2018-05-04T03:38:08.354Z,5.30
2018-05-04T03:39:08.368Z,6.40
2018-05-04T03:40:08.383Z,6.60
2018-05-04T03:41:08.401Z,5.60
2018-05-04T03:42:08.412Z,4.90
2018-05-04T03:43:08.424Z,4.90
2018-05-04T03:44:08.442Z,4.50
2018-05-04T03:45:08.455Z,4.50
2018-05-04T03:46:08.481Z,4.20
2018-05-04T03:47:08.494Z,4.60
2018-05-04T03:48:08.511Z,4.80
2018-05-04T03:49:08.551Z,4.70
2018-05-04T03:50:08.530Z,4.20
2018-05-04T03:51:08.547Z,4.70
2018-05-04T03:52:08.612Z,4.50
2018-05-04T03:53:08.574Z,4.70
2018-05-04T03:54:08.588Z,4.10
2018-05-04T03:55:08.610Z,4.00
2018-05-04T03:56:08.638Z,4.50
2018-05-04T03:57:08.633Z,4.20
2018-05-04T03:58:08.651Z,4.60
2018-05-04T03:59:08.662Z,4.60
2018-05-04T04:00:08.680Z,4.50
2018-05-04T04:01:08.691Z,4.70
2018-05-04T04:03:08.887Z,4.40
2018-05-04T04:04:08.736Z,4.70
2018-05-04T04:05:08.744Z,4.90
2018-05-04T04:06:08.760Z,4.30
2018-05-04T04:07:08.775Z,4.80
2018-05-04T04:08:08.789Z,5.00
2018-05-04T04:09:08.802Z,5.00
2018-05-04T04:10:08.823Z,4.70
2018-05-04T04:11:08.837Z,4.50
2018-05-04T04:12:08.846Z,4.50
2018-05-04T04:13:08.860Z,5.00
2018-05-04T04:14:08.875Z,4.90
2018-05-04T04:15:08.896Z,4.90
2018-05-04T04:16:08.930Z,4.80
2018-05-04T04:17:08.920Z,5.60
2018-05-04T04:18:08.935Z,5.20
2018-05-04T04:19:08.949Z,4.90
2018-05-04T04:20:08.966Z,5.10
2018-05-04T04:21:08.982Z,5.10
2018-05-04T04:22:09.362Z,5.30
2018-05-04T04:23:09.029Z,5.00
2018-05-04T04:25:09.053Z,4.40
2018-05-04T04:26:09.057Z,4.70
2018-05-04T04:27:09.068Z,4.70
2018-05-04T04:28:09.107Z,4.70
2018-05-04T04:29:09.096Z,4.70
2018-05-04T04:30:09.115Z,4.80
2018-05-04T04:31:09.140Z,5.30
2018-05-04T04:32:09.140Z,5.20
2018-05-04T04:33:09.154Z,4.90
2018-05-04T04:34:09.277Z,5.10
2018-05-04T04:35:09.185Z,5.40
2018-05-04T04:36:09.256Z,4.90
2018-05-04T04:37:09.213Z,5.30
2018-05-04T04:38:10.540Z,4.60
2018-05-04T04:39:09.361Z,4.90
2018-05-04T04:40:09.288Z,5.30
2018-05-04T04:41:09.329Z,4.90
2018-05-04T04:42:09.325Z,4.80
2018-05-04T04:43:09.300Z,4.80
2018-05-04T04:44:09.331Z,5.00
2018-05-04T04:45:09.338Z,4.80
2018-05-04T04:46:09.346Z,5.00
2018-05-04T04:47:09.366Z,4.70
2018-05-04T04:48:09.468Z,4.80
2018-05-04T04:49:09.547Z,4.80
2018-05-04T04:50:09.408Z,4.50
2018-05-04T04:51:09.419Z,5.00
2018-05-04T04:53:09.457Z,5.10
2018-05-04T04:54:09.472Z,4.60
2018-05-04T04:55:09.497Z,4.60
2018-05-04T04:56:10.317Z,4.90
2018-05-04T04:57:09.517Z,4.90
2018-05-04T04:58:09.524Z,5.00
2018-05-04T04:59:09.537Z,5.70
2018-05-04T05:00:09.558Z,5.00
2018-05-04T05:01:09.633Z,4.80
2018-05-04T05:02:10.760Z,4.80
2018-05-04T05:03:10.264Z,4.90
2018-05-04T05:04:10.236Z,5.20
2018-05-04T05:05:09.788Z,4.70
2018-05-04T05:06:09.787Z,4.90
2018-05-04T05:07:09.681Z,5.30
2018-05-04T05:08:09.772Z,5.10
2018-05-04T05:09:09.753Z,5.00
2018-05-04T05:10:09.704Z,5.30
2018-05-04T05:11:09.939Z,5.00
2018-05-04T05:12:10.817Z,5.20
2018-05-04T05:13:09.966Z,5.00
2018-05-04T05:14:09.881Z,4.80
2018-05-04T05:15:09.781Z,5.20
2018-05-04T05:16:09.792Z,5.10
2018-05-04T05:17:09.812Z,4.70
2018-05-04T05:18:10.029Z,5.20
2018-05-04T05:19:10.332Z,5.30
2018-05-04T05:20:09.902Z,4.50
2018-05-04T05:21:09.870Z,4.90
2018-05-04T05:22:09.876Z,5.20
2018-05-04T05:23:09.900Z,5.20
2018-05-04T05:24:10.438Z,4.60
2018-05-04T05:25:10.017Z,5.40
2018-05-04T05:26:10.409Z,5.10
2018-05-04T05:27:10.480Z,4.60
2018-05-04T05:28:10.687Z,5.00
2018-05-04T05:29:10.019Z,4.90
2018-05-04T05:30:10.290Z,4.80
2018-05-04T05:31:10.622Z,4.80
2018-05-04T05:32:10.259Z,4.50
2018-05-04T05:33:10.039Z,4.90
2018-05-04T05:34:10.060Z,4.60
2018-05-04T05:35:10.069Z,5.30
2018-05-04T05:36:10.084Z,5.10
2018-05-04T05:37:10.146Z,4.90
2018-05-04T05:38:10.108Z,5.00
2018-05-04T05:39:10.149Z,4.60
2018-05-04T05:40:10.180Z,4.90
2018-05-04T05:41:10.412Z,5.40
2018-05-04T05:43:10.744Z,4.70
2018-05-04T05:44:10.227Z,5.30
2018-05-04T05:45:10.380Z,4.90
2018-05-04T05:46:10.233Z,5.20
2018-05-04T05:47:10.244Z,5.90
2018-05-04T05:48:10.690Z,5.60
2018-05-04T05:49:10.322Z,5.40
2018-05-04T05:50:10.309Z,5.40
2018-05-04T05:51:10.506Z,4.80
2018-05-04T05:52:10.539Z,4.90
2018-05-04T05:53:10.352Z,4.90
2018-05-04T05:54:10.501Z,4.80
2018-05-04T05:56:10.580Z,5.00
2018-05-04T05:57:10.471Z,4.70
2018-05-04T05:58:10.543Z,5.00
2018-05-04T05:59:10.444Z,4.60
2018-05-04T06:00:10.483Z,5.20
2018-05-04T06:01:11.174Z,4.90
2018-05-04T06:03:11.844Z,4.60
2018-05-04T06:04:10.739Z,4.70
2018-05-04T06:05:10.675Z,5.50
2018-05-04T06:06:12.091Z,4.90
2018-05-04T06:07:11.495Z,5.10
2018-05-04T06:08:10.896Z,4.80
2018-05-04T06:09:10.821Z,4.60
2018-05-04T06:10:11.683Z,5.00
2018-05-04T06:12:11.254Z,5.00
2018-05-04T06:13:11.380Z,5.50
2018-05-04T06:15:11.495Z,5.40
2018-05-04T06:16:10.921Z,5.30
2018-05-04T06:17:10.698Z,5.00
2018-05-04T06:18:10.711Z,4.70
2018-05-04T06:19:10.734Z,5.10
2018-05-04T06:20:10.741Z,5.10
2018-05-04T06:21:10.756Z,5.10
2018-05-04T06:22:10.774Z,6.60
2018-05-04T06:24:11.984Z,5.00
2018-05-04T06:25:10.835Z,4.90
2018-05-04T06:26:10.833Z,5.20
2018-05-04T06:27:10.871Z,4.90
2018-05-04T06:29:11.719Z,4.90
2018-05-04T06:31:11.053Z,4.70
2018-05-04T06:32:10.957Z,5.20
2018-05-04T06:33:12.028Z,5.60
2018-05-04T06:34:11.022Z,4.90
2018-05-04T06:35:11.038Z,5.50
2018-05-04T06:36:11.252Z,5.10
2018-05-04T06:37:11.681Z,5.50
2018-05-04T06:38:11.507Z,4.90
2018-05-04T06:39:11.132Z,5.30
2018-05-04T06:40:12.784Z,5.40
2018-05-04T06:41:12.235Z,5.30
2018-05-04T06:42:11.166Z,5.20
2018-05-04T06:43:11.203Z,4.90
2018-05-04T06:45:11.209Z,5.30
2018-05-04T06:46:11.311Z,5.30
2018-05-04T06:47:11.154Z,5.30
2018-05-04T06:48:11.201Z,4.60
2018-05-04T06:49:11.315Z,5.60
2018-05-04T06:50:11.298Z,5.50
2018-05-04T06:51:11.383Z,5.30
2018-05-04T06:52:11.337Z,5.30
2018-05-04T06:53:11.329Z,5.00
2018-05-04T06:54:11.258Z,5.00
2018-05-04T06:55:11.909Z,4.90
2018-05-04T06:56:11.340Z,5.50
2018-05-04T06:57:11.413Z,5.20
2018-05-04T06:58:11.409Z,5.20
2018-05-04T06:59:11.341Z,5.00
2018-05-04T07:00:12.019Z,4.60
2018-05-04T07:01:11.665Z,4.60
2018-05-04T07:02:12.491Z,5.10
2018-05-04T07:03:12.033Z,5.30
2018-05-04T07:05:11.806Z,4.30
2018-05-04T07:06:11.753Z,4.80
2018-05-04T07:07:11.769Z,4.80
2018-05-04T07:08:12.026Z,4.60
2018-05-04T07:09:11.646Z,5.00
2018-05-04T07:10:11.563Z,4.90
2018-05-04T07:11:12.446Z,5.10
2018-05-04T07:12:11.623Z,5.10
2018-05-04T07:13:11.810Z,5.00
2018-05-04T07:15:13.223Z,4.90
2018-05-04T07:16:11.709Z,4.70
2018-05-04T07:17:11.657Z,5.20
2018-05-04T07:18:12.251Z,4.40
2018-05-04T07:19:12.010Z,5.10
2018-05-04T07:20:11.732Z,4.50
2018-05-04T07:21:11.688Z,4.70
2018-05-04T07:22:11.852Z,5.10
2018-05-04T07:23:11.852Z,4.70
2018-05-04T07:24:11.734Z,4.90
2018-05-04T07:25:11.835Z,5.50
2018-05-04T07:26:12.508Z,4.80
2018-05-04T07:27:12.038Z,5.10
2018-05-04T07:28:12.922Z,5.20
2018-05-04T07:29:11.870Z,4.80
2018-05-04T07:31:11.982Z,4.90
2018-05-04T07:32:11.908Z,5.70
2018-05-04T07:33:11.895Z,4.80
2018-05-04T07:34:11.907Z,4.40
2018-05-04T07:35:11.917Z,4.80
2018-05-04T07:36:11.959Z,4.40
2018-05-04T07:37:11.931Z,4.60
2018-05-04T07:38:12.149Z,4.90
2018-05-04T07:39:12.107Z,4.70
2018-05-04T07:40:12.421Z,4.90
2018-05-04T07:41:12.286Z,4.80
2018-05-04T07:42:12.144Z,5.00
2018-05-04T07:43:12.276Z,4.50
2018-05-04T07:44:12.134Z,5.10
2018-05-04T07:45:12.660Z,5.00
2018-05-04T07:47:12.089Z,4.70
2018-05-04T07:48:12.195Z,4.70
2018-05-04T07:49:12.124Z,4.70
2018-05-04T07:50:12.127Z,4.60
2018-05-04T07:51:12.145Z,4.60
2018-05-04T07:52:12.169Z,4.40
2018-05-04T07:53:12.180Z,4.90
2018-05-04T07:54:12.196Z,3.90
2018-05-04T07:55:12.290Z,4.50
2018-05-04T07:56:12.272Z,4.70
2018-05-04T07:57:12.242Z,4.60
2018-05-04T07:58:13.086Z,4.80
2018-05-04T07:59:12.272Z,4.80
2018-05-04T08:00:13.569Z,4.80
2018-05-04T08:01:14.067Z,5.00
2018-05-04T08:02:13.299Z,4.60
2018-05-04T08:03:13.870Z,4.20
2018-05-04T08:04:12.440Z,4.40
2018-05-04T08:05:12.563Z,4.40
2018-05-04T08:06:12.394Z,4.20
2018-05-04T08:07:12.398Z,4.90
2018-05-04T08:08:12.436Z,4.50
2018-05-04T08:09:12.440Z,4.70
2018-05-04T08:10:12.711Z,5.00
2018-05-04T08:11:12.574Z,5.00
2018-05-04T08:12:12.487Z,4.10
2018-05-04T08:13:12.514Z,4.90
2018-05-04T08:14:12.559Z,4.60
2018-05-04T08:15:12.535Z,4.90
2018-05-04T08:16:12.542Z,3.90
2018-05-04T08:17:12.573Z,4.30
2018-05-04T08:18:12.576Z,5.00
2018-05-04T08:19:12.591Z,4.30
2018-05-04T08:20:12.628Z,4.70
2018-05-04T08:21:12.890Z,4.40
2018-05-04T08:22:13.115Z,4.40
2018-05-04T08:23:12.656Z,4.20
2018-05-04T08:24:12.769Z,4.70
2018-05-04T08:25:12.723Z,4.30
2018-05-04T08:26:12.711Z,4.40
2018-05-04T08:27:12.727Z,4.30
2018-05-04T08:28:12.789Z,4.50
2018-05-04T08:29:12.766Z,4.40
2018-05-04T08:30:12.811Z,4.00
2018-05-04T08:31:13.571Z,4.20
2018-05-04T08:32:13.482Z,4.30
2018-05-04T08:33:12.823Z,4.40
2018-05-04T08:34:12.895Z,3.60
2018-05-04T08:35:13.209Z,4.50
2018-05-04T08:36:12.864Z,3.80
2018-05-04T08:37:12.883Z,4.10
2018-05-04T08:38:12.896Z,4.10
2018-05-04T08:39:12.923Z,4.40
2018-05-04T08:40:12.935Z,4.20
2018-05-04T08:41:12.952Z,3.70
2018-05-04T08:42:12.962Z,4.20
2018-05-04T08:43:12.988Z,4.30
2018-05-04T08:44:13.611Z,4.30
2018-05-04T08:45:13.012Z,4.00
2018-05-04T08:46:14.345Z,4.10
2018-05-04T08:47:13.044Z,4.40
2018-05-04T08:48:13.076Z,4.20
2018-05-04T08:49:13.090Z,4.20
2018-05-04T08:50:13.091Z,4.60
2018-05-04T08:51:13.541Z,4.90
2018-05-04T08:52:13.221Z,4.70
2018-05-04T08:53:13.189Z,4.20
2018-05-04T08:54:13.278Z,4.20
2018-05-04T08:55:13.176Z,4.30
2018-05-04T08:56:13.192Z,4.40
2018-05-04T08:57:13.310Z,4.00
2018-05-04T08:58:13.222Z,4.00
2018-05-04T08:59:13.249Z,3.80
2018-05-04T09:00:13.253Z,4.00
2018-05-04T09:02:13.294Z,3.90
2018-05-04T09:03:13.619Z,4.50
2018-05-04T09:04:13.326Z,4.30
2018-05-04T09:05:13.458Z,3.60
2018-05-04T09:06:13.355Z,4.00
2018-05-04T09:07:13.368Z,3.80
2018-05-04T09:08:13.387Z,4.30
2018-05-04T09:09:13.404Z,4.30
2018-05-04T09:10:13.419Z,3.90
2018-05-04T09:11:13.434Z,4.30
2018-05-04T09:12:13.452Z,5.50
2018-05-04T09:13:13.474Z,4.80
2018-05-04T09:14:13.489Z,4.20
2018-05-04T09:15:13.506Z,4.30
2018-05-04T09:16:13.714Z,3.90
2018-05-04T09:17:13.535Z,4.20
2018-05-04T09:18:13.558Z,5.10
2018-05-04T09:19:14.212Z,4.00
2018-05-04T09:20:13.586Z,4.20
2018-05-04T09:21:13.611Z,3.90
2018-05-04T09:22:13.617Z,3.80
2018-05-04T09:23:13.635Z,4.10
2018-05-04T09:24:13.791Z,4.00
2018-05-04T09:25:13.744Z,4.00
2018-05-04T09:26:13.685Z,4.10
2018-05-04T09:27:13.703Z,4.20
2018-05-04T09:28:13.721Z,4.10
2018-05-04T09:29:13.742Z,4.10
2018-05-04T09:30:13.971Z,4.00
2018-05-04T09:31:13.768Z,3.90
2018-05-04T09:32:14.457Z,4.10
2018-05-04T09:33:13.800Z,4.30
2018-05-04T09:34:13.831Z,3.90
2018-05-04T09:35:13.835Z,3.50
2018-05-04T09:36:13.993Z,3.30
2018-05-04T09:37:13.936Z,3.80
2018-05-04T09:38:14.511Z,3.90
2018-05-04T09:39:13.903Z,3.70
2018-05-04T09:40:13.932Z,3.80
2018-05-04T09:41:13.934Z,3.90
2018-05-04T09:42:14.000Z,3.60
2018-05-04T09:43:14.218Z,3.90
2018-05-04T09:44:14.058Z,3.40
2018-05-04T09:45:14.000Z,4.00
2018-05-04T09:46:14.017Z,3.80
2018-05-04T09:47:14.034Z,3.60
2018-05-04T09:48:14.069Z,3.20
2018-05-04T09:49:14.068Z,3.30
2018-05-04T09:50:14.088Z,3.70
2018-05-04T09:51:14.098Z,3.80
2018-05-04T09:52:14.120Z,3.70
2018-05-04T09:53:14.139Z,3.90
2018-05-04T09:54:14.153Z,3.50
2018-05-04T09:55:14.175Z,3.80
2018-05-04T09:56:14.275Z,3.70
2018-05-04T09:57:14.202Z,3.60
2018-05-04T09:58:14.219Z,3.40
2018-05-04T09:59:14.243Z,3.60
2018-05-04T10:00:14.253Z,3.30
2018-05-04T10:01:14.270Z,3.10
2018-05-04T10:03:14.916Z,3.30
2018-05-04T10:04:15.038Z,3.40
2018-05-04T10:05:15.629Z,3.60
2018-05-04T10:06:15.015Z,3.90
2018-05-04T10:07:14.728Z,3.90
2018-05-04T10:08:14.666Z,3.80
2018-05-04T10:09:16.145Z,3.50
2018-05-04T10:10:14.531Z,4.60
2018-05-04T10:11:14.793Z,6.10
2018-05-04T10:12:14.457Z,4.10
2018-05-04T10:13:14.474Z,3.70
2018-05-04T10:14:14.495Z,3.70
2018-05-04T10:15:14.557Z,3.90
2018-05-04T10:16:14.524Z,4.60
2018-05-04T10:17:14.541Z,8.50
2018-05-04T10:18:15.691Z,4.20
2018-05-04T10:19:15.196Z,3.60
2018-05-04T10:20:15.074Z,4.30
2018-05-04T10:21:14.640Z,4.40
2018-05-04T10:22:14.639Z,4.10
2018-05-04T10:23:14.642Z,4.00
2018-05-04T10:24:14.662Z,4.20
2018-05-04T10:25:14.676Z,4.20
2018-05-04T10:26:14.706Z,4.20
2018-05-04T10:27:14.709Z,4.30
2018-05-04T10:28:14.726Z,4.00
2018-05-04T10:29:14.743Z,4.00
2018-05-04T10:30:14.769Z,3.90
2018-05-04T10:31:14.783Z,4.00
2018-05-04T10:32:14.834Z,4.10
2018-05-04T10:33:14.814Z,4.00
2018-05-04T10:34:14.846Z,3.80
2018-05-04T10:35:14.883Z,4.30
2018-05-04T10:36:14.864Z,4.20
2018-05-04T10:37:14.895Z,4.40
2018-05-04T10:38:14.966Z,4.40
2018-05-04T10:39:14.922Z,4.20
2018-05-04T10:40:14.938Z,4.20
2018-05-04T10:41:15.037Z,4.40
2018-05-04T10:42:14.968Z,3.90
2018-05-04T10:43:14.988Z,4.10
2018-05-04T10:44:15.008Z,4.10
2018-05-04T10:45:15.261Z,4.40
2018-05-04T10:47:15.053Z,4.30
2018-05-04T10:48:15.071Z,4.00
2018-05-04T10:49:15.086Z,4.10
2018-05-04T10:50:15.105Z,4.60
2018-05-04T10:51:15.126Z,4.00
2018-05-04T10:52:15.301Z,4.10
2018-05-04T10:53:15.160Z,3.90
2018-05-04T10:54:15.171Z,4.50
2018-05-04T10:55:15.191Z,4.70
2018-05-04T10:56:15.368Z,4.00
2018-05-04T10:57:15.245Z,3.90
2018-05-04T10:58:15.254Z,3.90
2018-05-04T10:59:15.262Z,4.10
2018-05-04T11:00:15.278Z,4.00
2018-05-04T11:01:15.349Z,4.40
2018-05-04T11:02:15.312Z,4.00
2018-05-04T11:03:15.326Z,4.10
2018-05-04T11:04:15.353Z,4.40
2018-05-04T11:05:15.363Z,4.50
2018-05-04T11:06:15.379Z,4.20
2018-05-04T11:07:15.396Z,4.40
2018-05-04T11:08:15.417Z,4.60
2018-05-04T11:09:15.434Z,4.00
2018-05-04T11:10:15.615Z,4.30
2018-05-04T11:11:15.549Z,4.70
2018-05-04T11:13:15.546Z,4.70
2018-05-04T11:14:15.517Z,4.30
2018-05-04T11:15:15.535Z,4.10
2018-05-04T11:16:15.556Z,4.50
2018-05-04T11:17:15.570Z,4.00
2018-05-04T11:18:15.588Z,4.70
2018-05-04T11:19:15.603Z,4.70
2018-05-04T11:20:15.623Z,4.50
2018-05-04T11:21:15.638Z,4.90
2018-05-04T11:22:15.655Z,4.50
2018-05-04T11:23:15.675Z,4.00
2018-05-04T11:24:15.798Z,4.10
2018-05-04T11:25:15.710Z,4.20
2018-05-04T11:26:15.728Z,4.60
2018-05-04T11:27:15.799Z,4.50
2018-05-04T11:28:15.761Z,4.40
2018-05-04T11:29:15.780Z,4.30
2018-05-04T11:30:15.798Z,4.10
2018-05-04T11:31:16.440Z,4.40
2018-05-04T11:32:15.833Z,3.90
2018-05-04T11:33:16.267Z,4.30
2018-05-04T11:34:15.865Z,4.20
2018-05-04T11:35:15.882Z,4.30
2018-05-04T11:36:15.902Z,4.60
2018-05-04T11:37:15.919Z,4.40
2018-05-04T11:38:15.935Z,3.90
2018-05-04T11:39:15.964Z,4.70
2018-05-04T11:40:15.974Z,4.10
2018-05-04T11:41:15.990Z,4.40
2018-05-04T11:42:16.009Z,4.70
2018-05-04T11:43:16.027Z,4.70
2018-05-04T11:44:17.418Z,4.10
2018-05-04T11:45:17.634Z,4.70
2018-05-04T11:46:16.865Z,4.40
2018-05-04T11:47:16.893Z,4.70
2018-05-04T11:48:16.305Z,4.60
2018-05-04T11:49:16.398Z,4.70
2018-05-04T11:50:17.478Z,4.60
2018-05-04T11:51:16.170Z,4.30
2018-05-04T11:52:16.188Z,4.90
2018-05-04T11:53:16.207Z,4.50
2018-05-04T11:54:16.218Z,4.60
2018-05-04T11:55:16.255Z,4.60
2018-05-04T11:56:16.251Z,4.20
2018-05-04T11:57:16.269Z,4.60
2018-05-04T11:58:16.289Z,4.80
2018-05-04T11:59:16.320Z,4.80
2018-05-04T12:00:16.324Z,4.40
2018-05-04T12:01:16.361Z,4.40
2018-05-04T12:02:16.360Z,4.60
2018-05-04T12:03:16.376Z,5.20
2018-05-04T12:04:16.396Z,4.60
2018-05-04T12:05:16.413Z,4.60
2018-05-04T12:06:16.432Z,4.80
2018-05-04T12:07:16.449Z,4.20
2018-05-04T12:08:16.475Z,4.80
2018-05-04T12:09:16.488Z,5.20
2018-05-04T12:10:16.514Z,5.00
2018-05-04T12:11:16.522Z,5.30
2018-05-04T12:12:16.541Z,5.50
2018-05-04T12:13:16.562Z,5.10
2018-05-04T12:14:16.580Z,5.40
2018-05-04T12:15:16.594Z,4.80
2018-05-04T12:16:16.615Z,4.60
2018-05-04T12:17:16.631Z,5.00
2018-05-04T12:18:16.654Z,4.40
2018-05-04T12:19:16.698Z,4.60
2018-05-04T12:20:16.711Z,4.60
2018-05-04T12:21:16.718Z,4.50
2018-05-04T12:22:16.735Z,4.80
2018-05-04T12:23:16.737Z,5.10
2018-05-04T12:24:16.758Z,5.00
2018-05-04T12:25:16.775Z,5.00
2018-05-04T12:26:16.817Z,4.70
2018-05-04T12:27:16.812Z,4.80
2018-05-04T12:28:16.838Z,4.40
2018-05-04T12:29:16.851Z,4.50
2018-05-04T12:30:16.867Z,4.40
2018-05-04T12:31:16.964Z,4.00
2018-05-04T12:32:16.902Z,4.70
2018-05-04T12:33:16.922Z,4.30
2018-05-04T12:34:16.942Z,4.70
2018-05-04T12:35:16.962Z,4.70
2018-05-04T12:36:16.984Z,4.60
2018-05-04T12:37:17.026Z,4.60
2018-05-04T12:38:17.019Z,4.70
2018-05-04T12:39:17.035Z,5.30
2018-05-04T12:40:17.089Z,5.10
2018-05-04T12:41:17.278Z,5.00
2018-05-04T12:42:17.090Z,4.80
2018-05-04T12:43:17.112Z,4.50
2018-05-04T12:44:17.131Z,4.40
2018-05-04T12:45:17.245Z,4.70
2018-05-04T12:46:17.163Z,5.30
2018-05-04T12:47:17.182Z,5.00
2018-05-04T12:48:17.203Z,5.20
2018-05-04T12:49:17.221Z,5.00
2018-05-04T12:50:17.246Z,5.20
2018-05-04T12:51:17.261Z,5.20
2018-05-04T12:52:17.284Z,5.00
2018-05-04T12:53:17.351Z,5.00
2018-05-04T12:54:17.322Z,5.10
2018-05-04T12:55:17.339Z,5.10
2018-05-04T12:56:17.356Z,4.30
2018-05-04T12:57:17.372Z,5.10
2018-05-04T12:58:17.421Z,5.20
2018-05-04T12:59:17.424Z,4.90
2018-05-04T13:00:17.473Z,4.60
2018-05-04T13:01:17.453Z,4.60
2018-05-04T13:02:17.477Z,5.10
2018-05-04T13:03:17.552Z,5.40
2018-05-04T13:04:17.515Z,5.00
2018-05-04T13:05:17.529Z,4.60
2018-05-04T13:06:17.554Z,6.00
2018-05-04T13:07:18.114Z,5.10
2018-05-04T13:08:17.610Z,4.80
2018-05-04T13:09:17.616Z,4.70
2018-05-04T13:10:17.699Z,5.00
2018-05-04T13:11:17.658Z,5.00
2018-05-04T13:12:17.685Z,4.70
2018-05-04T13:13:17.716Z,4.70
2018-05-04T13:14:17.729Z,4.60
2018-05-04T13:15:17.749Z,4.90
2018-05-04T13:16:17.830Z,5.40
2018-05-04T13:17:17.796Z,5.00
2018-05-04T13:18:17.822Z,5.10
2018-05-04T13:19:17.858Z,5.10
2018-05-04T13:20:17.863Z,4.70
2018-05-04T13:21:17.886Z,4.70
2018-05-04T13:22:17.912Z,5.40
2018-05-04T13:23:17.941Z,5.10
2018-05-04T13:24:17.969Z,4.90
2018-05-04T13:25:17.986Z,5.10
2018-05-04T13:26:18.019Z,5.20
2018-05-04T13:27:18.042Z,5.00
2018-05-04T13:28:18.098Z,5.20
2018-05-04T13:29:18.130Z,5.20
2018-05-04T13:30:18.119Z,5.40
2018-05-04T13:31:18.148Z,5.00
2018-05-04T13:32:18.172Z,5.20
2018-05-04T13:33:18.211Z,5.40
2018-05-04T13:34:18.227Z,5.00
2018-05-04T13:35:18.281Z,5.50
2018-05-04T13:36:18.281Z,5.10
2018-05-04T13:37:18.305Z,5.60
2018-05-04T13:38:18.330Z,4.90